Alpha, Illinois
Current Conditions -  °F | °C
As of 12:52 PM on Friday 24 Oct 2014 (Local Time) from KMLI Reporting Station
Clear Clear  
Wind Chill: 64°   Ceiling: Unl
Heat Index: 64°   Visibility: 10mi
Dew Point: 53°   Wind: 10mph
Humidity: 67%   Direction: 180°S
Pressure: 30.02"   Gusts: NA
Location:  41.19°N, 90.38°W
Report Text: KMLI 241752Z 18009KT 10SM CLR 18/12 A3002 RMK AO2 SLP165 T01780117 10178 20100 58016
Loading
Personal Weather Stations






























Interactive Weather Map
Tropical Storm Tracking
New forecast layout! Learn more

10-Day Weather Forecast

Advertisements
Track Severe Weather on mobile